Terminal Aerodrome Forecast
Issued by NWS

Home | Current Version | Previous Version | Text Only | Print | Product List | Glossary On
Versions: 1 2 3 4 5 6 7 8 9 10 11 12 13 14 15 16 17 18 19 20 21 22 23 24 25 26 27
000
FTUS46 KOTX 250008 AAA
TAFCOE
TAF AMD
KCOE 250008Z 2500/2524 31009KT P6SM VCSH FEW005 OVC015
      TEMPO 2500/2504 3SM -SHSN OVC007
     FM250400 30010KT P6SM SCT007 BKN015
     FM251300 33007KT 5SM BR OVC008
     FM251800 29005KT P6SM BKN015 OVC040
      AMD NOT SKED=

USA.gov is the U.S. government's official web portal to all federal, state and local government web resources and services.